createdAt,value
2019-03-26T00:01:11.984Z,66.20
2019-03-26T00:04:05.822Z,67.90
2019-03-26T00:06:41.790Z,66.70
2019-03-26T00:09:24.072Z,67.40
2019-03-26T00:12:13.393Z,67.70
2019-03-26T00:14:57.291Z,67.40
2019-03-26T00:17:41.816Z,68.70
2019-03-26T00:20:32.859Z,67.20
2019-03-26T00:23:22.712Z,66.70
2019-03-26T00:26:04.444Z,66.50
2019-03-26T00:28:50.119Z,66.70
2019-03-26T00:31:40.728Z,65.40
2019-03-26T00:34:21.920Z,66.60
2019-03-26T00:37:01.299Z,66.20
2019-03-26T00:39:45.801Z,66.20
2019-03-26T00:42:26.744Z,66.90
2019-03-26T00:45:08.288Z,66.60
2019-03-26T00:47:50.862Z,66.60
2019-03-26T00:50:32.433Z,66.80
2019-03-26T00:53:18.691Z,65.80
2019-03-26T00:56:00.957Z,65.90
2019-03-26T00:58:41.763Z,65.60
2019-03-26T01:01:22.778Z,65.90
2019-03-26T01:04:09.531Z,65.90
2019-03-26T01:06:50.912Z,66.00
2019-03-26T01:09:36.256Z,66.70
2019-03-26T01:15:35.755Z,66.10
2019-03-26T01:18:17.604Z,65.70
2019-03-26T01:21:14.057Z,66.10
2019-03-26T01:24:11.784Z,65.00
2019-03-26T01:26:57.896Z,65.50
2019-03-26T01:32:50.496Z,66.50
2019-03-26T01:35:38.588Z,66.80
2019-03-26T01:38:23.376Z,65.20
2019-03-26T01:41:06.831Z,64.30
2019-03-26T01:43:49.352Z,63.80
2019-03-26T01:50:03.770Z,64.80
2019-03-26T01:52:47.224Z,65.10
2019-03-26T01:55:33.948Z,65.20
2019-03-26T01:58:32.137Z,64.30
2019-03-26T02:01:16.010Z,63.50
2019-03-26T02:04:05.970Z,65.60
2019-03-26T02:06:55.480Z,65.20
2019-03-26T02:09:43.459Z,64.10
2019-03-26T02:12:29.049Z,62.80
2019-03-26T02:15:19.726Z,64.80
2019-03-26T02:18:04.618Z,65.40
2019-03-26T02:20:49.780Z,63.20
2019-03-26T02:23:35.418Z,62.10
2019-03-26T02:26:22.360Z,63.00
2019-03-26T02:29:08.790Z,62.80
2019-03-26T02:31:51.041Z,62.40
2019-03-26T02:34:35.725Z,63.20
2019-03-26T02:37:23.223Z,64.10
2019-03-26T02:40:10.776Z,64.10
2019-03-26T02:42:53.230Z,62.50
2019-03-26T02:45:31.918Z,60.50
2019-03-26T02:48:13.851Z,62.50
2019-03-26T02:50:53.686Z,62.00
2019-03-26T02:53:41.520Z,60.30
2019-03-26T02:56:28.174Z,60.90
2019-03-26T02:59:11.596Z,61.00
2019-03-26T03:01:57.288Z,63.10
2019-03-26T03:04:42.133Z,64.20
2019-03-26T03:07:22.736Z,61.60
2019-03-26T03:10:06.706Z,61.00
2019-03-26T03:12:56.787Z,62.00
2019-03-26T03:15:40.371Z,61.90
2019-03-26T03:18:23.283Z,63.40
2019-03-26T03:21:13.524Z,61.10
2019-03-26T03:24:09.784Z,59.70
2019-03-26T03:26:54.813Z,60.00
2019-03-26T03:29:46.035Z,59.70
2019-03-26T03:32:32.110Z,57.60
2019-03-26T03:35:16.842Z,57.80
2019-03-26T03:38:22.792Z,58.60
2019-03-26T03:41:29.498Z,59.70
2019-03-26T03:44:13.098Z,59.60
2019-03-26T03:46:53.776Z,60.50
2019-03-26T03:49:36.564Z,60.60
2019-03-26T03:52:17.877Z,60.70
2019-03-26T03:55:05.228Z,60.30
2019-03-26T03:57:52.982Z,58.90
2019-03-26T04:00:42.794Z,59.70
2019-03-26T04:03:25.557Z,60.60
2019-03-26T04:06:09.702Z,61.60
2019-03-26T04:08:50.787Z,59.90
2019-03-26T04:11:37.285Z,60.00
2019-03-26T04:14:31.115Z,59.50
2019-03-26T04:17:12.984Z,59.70
2019-03-26T04:19:55.422Z,59.50
2019-03-26T04:22:39.445Z,60.60
2019-03-26T04:25:23.270Z,60.00
2019-03-26T04:28:05.840Z,58.70
2019-03-26T04:31:03.439Z,58.90
2019-03-26T04:33:51.383Z,59.10
2019-03-26T04:36:38.685Z,60.60
2019-03-26T04:39:20.872Z,60.50
2019-03-26T04:42:06.710Z,58.90
2019-03-26T04:44:55.541Z,60.20
2019-03-26T04:48:01.529Z,60.60
2019-03-26T04:50:49.694Z,59.80
2019-03-26T04:54:18.788Z,59.60
2019-03-26T04:57:03.403Z,57.70
2019-03-26T04:59:52.801Z,61.40
2019-03-26T05:02:55.781Z,58.70
2019-03-26T05:05:51.233Z,56.80
2019-03-26T05:08:54.385Z,55.70
2019-03-26T05:11:35.404Z,55.80
2019-03-26T05:14:48.520Z,54.10
2019-03-26T05:17:48.091Z,55.30
2019-03-26T05:20:36.298Z,53.90
2019-03-26T05:23:20.183Z,53.80
2019-03-26T05:26:14.529Z,54.20
2019-03-26T05:29:02.250Z,54.70
2019-03-26T05:31:49.462Z,54.90
2019-03-26T05:34:32.131Z,54.50
2019-03-26T05:37:15.188Z,54.40
2019-03-26T05:40:09.635Z,54.20
2019-03-26T05:43:04.931Z,54.20
2019-03-26T05:45:53.862Z,55.80
2019-03-26T05:48:39.626Z,54.70
2019-03-26T05:51:31.636Z,54.00
2019-03-26T05:54:20.372Z,53.60
2019-03-26T05:57:09.626Z,54.10
2019-03-26T06:00:00.371Z,53.80
2019-03-26T06:02:45.901Z,53.70
2019-03-26T06:05:39.333Z,54.50
2019-03-26T06:08:28.191Z,54.80
2019-03-26T06:11:22.850Z,54.30
2019-03-26T06:14:06.615Z,54.20
2019-03-26T06:16:52.749Z,53.50
2019-03-26T06:19:42.823Z,54.30
2019-03-26T06:22:28.292Z,54.80
2019-03-26T06:25:21.435Z,55.40
2019-03-26T06:28:07.679Z,54.10
2019-03-26T06:30:51.780Z,53.40
2019-03-26T06:33:39.188Z,53.70
2019-03-26T06:36:27.402Z,52.90
2019-03-26T06:39:14.497Z,53.80
2019-03-26T06:42:00.574Z,53.10
2019-03-26T06:45:00.752Z,53.70
2019-03-26T06:47:44.776Z,52.70
2019-03-26T06:50:26.198Z,53.10
2019-03-26T06:53:27.804Z,53.80
2019-03-26T06:56:07.624Z,53.30
2019-03-26T06:58:54.343Z,53.20
2019-03-26T07:01:42.792Z,52.70
2019-03-26T07:04:25.580Z,53.20
2019-03-26T07:07:30.664Z,53.50
2019-03-26T07:10:21.918Z,53.00
2019-03-26T07:13:25.441Z,52.50
2019-03-26T07:16:17.225Z,53.00
2019-03-26T07:19:02.360Z,52.00
2019-03-26T07:21:49.721Z,51.80
2019-03-26T07:24:29.126Z,52.20
2019-03-26T07:27:16.713Z,52.60
2019-03-26T07:30:22.425Z,53.90
2019-03-26T07:33:08.057Z,54.70
2019-03-26T07:36:15.494Z,54.10
2019-03-26T07:38:58.533Z,53.60
2019-03-26T07:41:47.853Z,52.50
2019-03-26T07:44:30.573Z,52.40
2019-03-26T07:47:26.325Z,52.60
2019-03-26T07:50:14.014Z,52.20
2019-03-26T07:52:57.197Z,53.00
2019-03-26T07:55:45.190Z,54.70
2019-03-26T07:58:33.088Z,53.90
2019-03-26T08:01:28.536Z,54.70
2019-03-26T08:04:20.177Z,54.20
2019-03-26T08:07:10.433Z,54.40
2019-03-26T08:09:55.042Z,55.20
2019-03-26T08:12:39.259Z,54.80
2019-03-26T08:15:22.362Z,54.90
2019-03-26T08:18:09.934Z,54.50
2019-03-26T08:20:52.669Z,54.70
2019-03-26T08:23:47.330Z,54.90
2019-03-26T08:26:36.354Z,54.80
2019-03-26T08:29:39.091Z,54.80
2019-03-26T08:32:24.420Z,54.20
2019-03-26T08:35:27.833Z,53.70
2019-03-26T08:38:20.408Z,54.10
2019-03-26T08:41:15.850Z,54.00
2019-03-26T08:44:02.962Z,54.20
2019-03-26T08:47:02.551Z,54.10
2019-03-26T08:49:44.325Z,54.40
2019-03-26T08:55:28.312Z,54.40
2019-03-26T08:58:10.412Z,55.40
2019-03-26T09:00:56.130Z,56.90
2019-03-26T09:03:40.027Z,56.00
2019-03-26T09:06:24.559Z,56.40
2019-03-26T09:09:05.630Z,55.70
2019-03-26T09:11:51.164Z,56.10
2019-03-26T09:14:35.740Z,55.30
2019-03-26T09:17:31.565Z,55.80
2019-03-26T09:20:12.673Z,55.40
2019-03-26T09:22:56.214Z,55.50
2019-03-26T09:25:55.677Z,56.50
2019-03-26T09:28:41.263Z,56.30
2019-03-26T09:31:24.185Z,56.40
2019-03-26T09:34:16.397Z,56.20
2019-03-26T09:36:56.951Z,56.20
2019-03-26T09:39:46.682Z,56.30
2019-03-26T09:42:32.101Z,56.80
2019-03-26T09:45:17.302Z,57.50
2019-03-26T09:48:12.117Z,57.50
2019-03-26T09:50:54.234Z,57.10
2019-03-26T09:53:38.326Z,56.50
2019-03-26T09:56:29.227Z,56.50
2019-03-26T09:59:08.545Z,56.70
2019-03-26T10:02:07.892Z,56.80
2019-03-26T10:04:59.981Z,56.50
2019-03-26T10:08:02.012Z,56.50
2019-03-26T10:11:14.961Z,56.40
2019-03-26T10:14:07.453Z,56.70
2019-03-26T10:20:08.244Z,55.90
2019-03-26T10:22:50.342Z,55.80
2019-03-26T10:25:54.662Z,55.50
2019-03-26T10:28:41.335Z,58.00
2019-03-26T10:31:25.620Z,57.80
2019-03-26T10:34:06.528Z,57.00
2019-03-26T10:36:50.973Z,56.80
2019-03-26T10:39:35.552Z,56.90
2019-03-26T10:42:21.297Z,56.50
2019-03-26T10:45:06.702Z,56.30
2019-03-26T10:47:52.615Z,57.40
2019-03-26T10:50:37.147Z,57.80
2019-03-26T10:53:20.200Z,57.60
2019-03-26T10:56:09.781Z,57.20
2019-03-26T10:58:52.993Z,56.90
2019-03-26T11:01:41.973Z,57.30
2019-03-26T11:04:44.627Z,57.70
2019-03-26T11:07:26.386Z,57.40
2019-03-26T11:10:15.113Z,57.70
2019-03-26T11:13:04.007Z,58.40
2019-03-26T11:16:05.496Z,58.50
2019-03-26T11:18:49.200Z,58.70
2019-03-26T11:21:39.662Z,59.20
2019-03-26T11:24:24.497Z,59.50
2019-03-26T11:27:15.817Z,59.20
2019-03-26T11:30:03.326Z,58.70
2019-03-26T11:33:12.484Z,59.30
2019-03-26T11:35:59.341Z,59.70
2019-03-26T11:38:44.855Z,60.20
2019-03-26T11:41:29.192Z,60.40
2019-03-26T11:44:15.923Z,61.10
2019-03-26T11:47:16.910Z,61.80
2019-03-26T11:50:07.395Z,62.00
2019-03-26T11:53:05.139Z,61.20
2019-03-26T11:56:14.806Z,60.30
2019-03-26T11:59:00.508Z,60.00
2019-03-26T12:02:17.438Z,59.90
2019-03-26T12:05:26.865Z,59.50
2019-03-26T12:08:14.663Z,59.40
2019-03-26T12:11:20.384Z,59.50
2019-03-26T12:14:21.970Z,59.50
2019-03-26T12:17:28.087Z,60.30
2019-03-26T12:20:33.499Z,60.90
2019-03-26T12:23:40.917Z,60.30
2019-03-26T12:26:46.026Z,61.40
2019-03-26T12:29:47.842Z,60.30
2019-03-26T12:33:01.674Z,60.20
2019-03-26T12:35:56.674Z,60.10
2019-03-26T12:38:56.911Z,60.10
2019-03-26T12:41:59.939Z,60.20
2019-03-26T12:44:51.696Z,60.50
2019-03-26T12:47:42.172Z,60.80
2019-03-26T12:50:40.407Z,62.00
2019-03-26T12:53:54.401Z,61.70
2019-03-26T12:56:52.805Z,61.70
2019-03-26T12:59:46.782Z,62.90
2019-03-26T13:02:52.521Z,62.90
2019-03-26T13:05:51.941Z,62.10
2019-03-26T13:09:16.365Z,62.40
2019-03-26T13:12:10.724Z,61.60
2019-03-26T13:15:31.377Z,61.50
2019-03-26T13:18:19.420Z,60.70
2019-03-26T13:21:31.704Z,61.20
2019-03-26T13:24:43.100Z,61.00
2019-03-26T13:27:51.911Z,59.50
2019-03-26T13:30:56.127Z,59.70
2019-03-26T13:34:28.542Z,59.30
2019-03-26T13:40:37.465Z,59.00
2019-03-26T13:43:48.145Z,58.80
2019-03-26T13:46:56.005Z,58.90
2019-03-26T13:50:16.947Z,58.80
2019-03-26T13:56:47.934Z,58.60
2019-03-26T13:59:53.062Z,59.00
2019-03-26T14:03:07.612Z,59.30
2019-03-26T14:06:35.359Z,59.20
2019-03-26T14:09:59.019Z,59.20
2019-03-26T14:12:57.877Z,59.20
2019-03-26T14:16:19.797Z,59.00
2019-03-26T14:23:13.326Z,59.10
2019-03-26T14:26:24.820Z,59.00
2019-03-26T14:29:48.346Z,59.30
2019-03-26T14:33:21.908Z,59.90
2019-03-26T14:36:52.774Z,59.10
2019-03-26T14:40:11.107Z,59.50
2019-03-26T14:43:39.809Z,60.20
2019-03-26T14:47:20.936Z,59.70
2019-03-26T14:50:38.950Z,58.80
2019-03-26T14:54:01.914Z,58.80
2019-03-26T14:57:15.169Z,58.80
2019-03-26T15:04:10.008Z,58.50
2019-03-26T15:07:33.674Z,58.90
2019-03-26T15:14:21.805Z,59.10
2019-03-26T15:21:29.560Z,59.40
2019-03-26T15:24:25.173Z,59.40
2019-03-26T15:27:47.292Z,59.50
2019-03-26T15:31:15.803Z,60.30
2019-03-26T15:34:35.916Z,59.80
2019-03-26T15:37:52.760Z,59.90
2019-03-26T15:41:30.501Z,59.80
2019-03-26T15:44:42.985Z,59.90
2019-03-26T15:48:06.810Z,60.00
2019-03-26T15:51:39.637Z,60.00
2019-03-26T15:54:45.997Z,59.80
2019-03-26T16:01:28.722Z,59.40
2019-03-26T16:04:52.652Z,59.50
2019-03-26T16:07:55.423Z,60.10
2019-03-26T16:11:04.695Z,60.50
2019-03-26T16:14:07.318Z,60.40
2019-03-26T16:17:04.228Z,60.50
2019-03-26T16:20:07.058Z,60.70
2019-03-26T16:26:06.554Z,60.80
2019-03-26T16:28:53.839Z,60.90
2019-03-26T16:32:21.374Z,60.80
2019-03-26T16:35:32.934Z,60.90
2019-03-26T16:38:40.460Z,61.10
2019-03-26T16:41:34.606Z,61.00
2019-03-26T16:44:53.352Z,60.40
2019-03-26T16:51:03.481Z,60.00
2019-03-26T16:53:55.517Z,60.40
2019-03-26T16:57:14.096Z,60.30
2019-03-26T17:00:34.166Z,60.40
2019-03-26T17:03:44.017Z,60.80
2019-03-26T17:06:36.958Z,61.00
2019-03-26T17:09:41.202Z,61.10
2019-03-26T17:12:49.427Z,60.80
2019-03-26T17:15:41.887Z,61.00
2019-03-26T17:18:21.857Z,61.10
2019-03-26T17:21:22.215Z,61.40
2019-03-26T17:24:07.883Z,61.50
2019-03-26T17:26:58.072Z,61.50
2019-03-26T17:29:42.387Z,61.30
2019-03-26T17:32:22.479Z,61.60
2019-03-26T17:35:08.041Z,61.80
2019-03-26T17:37:59.735Z,61.60
2019-03-26T17:40:36.940Z,61.80
2019-03-26T17:43:28.675Z,61.90
2019-03-26T17:46:12.530Z,62.00
2019-03-26T17:49:03.374Z,61.90
2019-03-26T17:51:46.291Z,62.20
2019-03-26T17:54:45.291Z,62.20
2019-03-26T17:57:43.464Z,62.40
2019-03-26T18:00:25.638Z,62.50
2019-03-26T18:03:08.431Z,62.60
2019-03-26T18:05:57.801Z,62.70
2019-03-26T18:08:37.510Z,62.60
2019-03-26T18:11:23.836Z,62.80
2019-03-26T18:14:03.769Z,63.00
2019-03-26T18:16:51.549Z,63.30
2019-03-26T18:19:30.465Z,63.30
2019-03-26T18:22:16.270Z,63.30
2019-03-26T18:25:03.577Z,63.10
2019-03-26T18:27:47.773Z,63.00
2019-03-26T18:30:31.996Z,63.40
2019-03-26T18:33:11.925Z,63.40
2019-03-26T18:35:57.329Z,63.50
2019-03-26T18:38:42.425Z,63.50
2019-03-26T18:41:24.527Z,63.80
2019-03-26T18:44:09.254Z,64.00
2019-03-26T18:46:51.624Z,64.20
2019-03-26T18:49:35.188Z,64.90
2019-03-26T18:52:20.915Z,64.40
2019-03-26T18:55:02.682Z,64.50
2019-03-26T18:57:50.594Z,64.50
2019-03-26T19:00:50.929Z,64.50
2019-03-26T19:03:30.634Z,64.50
2019-03-26T19:06:14.406Z,64.50
2019-03-26T19:09:00.494Z,64.60
2019-03-26T19:11:43.654Z,64.60
2019-03-26T19:14:24.224Z,65.10
2019-03-26T19:17:04.561Z,65.10
2019-03-26T19:19:46.782Z,65.20
2019-03-26T19:26:24.204Z,65.10
2019-03-26T19:29:08.867Z,65.00
2019-03-26T19:31:56.311Z,65.10
2019-03-26T19:34:37.642Z,65.20
2019-03-26T19:37:17.995Z,65.20
2019-03-26T19:40:03.339Z,65.10
2019-03-26T19:42:42.641Z,64.30
2019-03-26T19:45:25.607Z,64.90
2019-03-26T19:48:07.403Z,64.90
2019-03-26T19:50:54.961Z,64.90
2019-03-26T19:53:39.908Z,65.10
2019-03-26T19:56:25.494Z,65.10
2019-03-26T19:59:08.105Z,65.10
2019-03-26T20:01:50.142Z,65.20
2019-03-26T20:04:29.585Z,65.30
2019-03-26T20:07:10.063Z,65.30
2019-03-26T20:09:58.880Z,65.40
2019-03-26T20:12:40.171Z,65.50
2019-03-26T20:15:29.484Z,65.30
2019-03-26T20:18:13.322Z,65.40
2019-03-26T20:20:53.941Z,65.60
2019-03-26T20:23:35.300Z,65.70
2019-03-26T20:26:15.878Z,65.30
2019-03-26T20:28:59.391Z,65.40
2019-03-26T20:31:44.727Z,65.50
2019-03-26T20:34:22.508Z,65.10
2019-03-26T20:37:09.453Z,65.10
2019-03-26T20:39:49.945Z,65.10
2019-03-26T20:42:36.684Z,65.10
2019-03-26T20:45:18.993Z,65.10
2019-03-26T20:48:01.847Z,65.20
2019-03-26T20:50:43.214Z,64.90
2019-03-26T20:53:25.634Z,64.60
2019-03-26T20:56:05.290Z,64.80
2019-03-26T20:58:49.849Z,65.00
2019-03-26T21:01:33.647Z,65.30
2019-03-26T21:04:14.431Z,65.30
2019-03-26T21:07:01.133Z,64.80
2019-03-26T21:09:49.968Z,64.80
2019-03-26T21:12:31.366Z,64.90
2019-03-26T21:15:10.179Z,65.00
2019-03-26T21:17:57.093Z,65.30
2019-03-26T21:21:11.736Z,65.50
2019-03-26T21:23:55.061Z,65.60
2019-03-26T21:26:37.345Z,65.90
2019-03-26T21:29:18.686Z,65.80
2019-03-26T21:32:00.700Z,65.90
2019-03-26T21:34:41.194Z,65.90
2019-03-26T21:37:38.845Z,66.10
2019-03-26T21:40:21.644Z,66.10
2019-03-26T21:43:04.536Z,66.20
2019-03-26T21:45:51.198Z,65.90
2019-03-26T21:48:41.311Z,65.80
2019-03-26T21:51:22.107Z,65.90
2019-03-26T21:54:04.768Z,66.10
2019-03-26T21:56:43.997Z,66.30
2019-03-26T21:59:28.638Z,66.40
2019-03-26T22:02:13.250Z,66.50
2019-03-26T22:04:52.725Z,66.60
2019-03-26T22:07:35.697Z,66.70
2019-03-26T22:10:20.428Z,66.70
2019-03-26T22:13:01.108Z,66.60
2019-03-26T22:15:42.274Z,66.80
2019-03-26T22:18:26.615Z,67.70
2019-03-26T22:21:08.425Z,66.90
2019-03-26T22:23:52.912Z,66.80
2019-03-26T22:26:36.929Z,66.90
2019-03-26T22:29:16.980Z,66.80
2019-03-26T22:31:56.924Z,66.70
2019-03-26T22:34:37.589Z,66.80
2019-03-26T22:37:25.281Z,67.00
2019-03-26T22:40:10.707Z,67.10
2019-03-26T22:42:53.976Z,67.10
2019-03-26T22:45:42.353Z,67.40
2019-03-26T22:48:31.161Z,67.60
2019-03-26T22:51:15.301Z,67.60
2019-03-26T22:53:56.326Z,67.70
2019-03-26T22:56:36.722Z,67.70
2019-03-26T22:59:23.741Z,67.70
2019-03-26T23:02:11.496Z,67.80
2019-03-26T23:04:51.202Z,67.30
2019-03-26T23:07:39.249Z,67.30
2019-03-26T23:10:36.963Z,67.10
2019-03-26T23:13:12.063Z,67.00
2019-03-26T23:15:55.212Z,67.30
2019-03-26T23:18:43.302Z,67.70
2019-03-26T23:21:32.626Z,67.90
2019-03-26T23:24:14.360Z,67.20
2019-03-26T23:27:02.806Z,67.50
2019-03-26T23:29:48.257Z,69.90
2019-03-26T23:32:36.524Z,69.80
2019-03-26T23:35:16.445Z,68.40
2019-03-26T23:37:56.822Z,69.50
2019-03-26T23:40:41.755Z,69.30
2019-03-26T23:43:32.740Z,69.20
2019-03-26T23:46:15.422Z,69.00
2019-03-26T23:48:58.081Z,68.70
2019-03-26T23:51:37.661Z,69.50
2019-03-26T23:54:16.069Z,69.10
2019-03-26T23:56:56.824Z,68.20
2019-03-26T23:59:40.148Z,68.70
